aviador You're here:

SAAR Decoded Metar

ROSARIO in ARGENTINA
Report Time2017-09-23 08:00:00
UTC Time2017-09-23 09:04:32
Flight Rules mvfr MVFR
Wind250° at 02 kt
W.Decomp.*RWY 20: 1.1 kt HW 1.6 kt RCW
W.Rank250° ranks 16
Current wind is below 250° avg. (5.9)
Visibility5000 m
Phenomena:Mist
Shallow Fog
Clouds:N/A
CeilingNone
Temp07°C (ISA -8)
Dew Point07°C (100% RH)
AAT5.6°C
QNH1022 hPa
Density Alt-1,030 ft
Elevation82 ft
Report Wrong Elevation
Raw Report
METAR SAAR 230800Z 25002KT 5000 MIFG BR NSC 07/07 Q1022=

Extra information for SAAR:More info

Metar Taf Metar & Taf Last 4 Metars F.Rules Stats Wind Profile Meteogram Temp Stats Airport Information Weather charts Add Link Nearby VenuesMetar ALERT Operation Metar Decoded Social comments